Time;durP1;ratioP1;P1;durP2;ratioP2;P2;SDS_P1;SDS_P2;PMS_P1;PMS_P2;Temp;Humidity;BMP_temperature;BMP_pressure;BME280_temperature;BME280_humidity;BME280_pressure;Samples;Min_cycle;Max_cycle;Signal;HPM_P1;HPM_P2
2022/05/19 00:04:55;;;;;;;3.22;1.50;;;18.20;99.90;;;;;;20707552;28;20122;-39
2022/05/19 00:14:57;;;;;;;4.38;1.88;;;18.10;99.90;;;;;;20708403;28;20538;-39
2022/05/19 00:24:58;;;;;;;2.83;1.60;;;18.10;99.90;;;;;;20710341;28;20045;-39
2022/05/19 00:34:59;;;;;;;3.25;1.58;;;18.00;99.90;;;;;;20714665;28;20419;-39
2022/05/19 00:45:01;;;;;;;6.40;2.03;;;18.00;99.90;;;;;;20709727;28;20042;-39
2022/05/19 00:55:07;;;;;;;4.18;1.92;;;18.10;99.90;;;;;;20706194;28;20109;-39
2022/05/19 01:05:21;;;;;;;3.87;2.13;;;18.00;99.90;;;;;;20713532;28;20042;-39
2022/05/19 01:15:23;;;;;;;4.07;1.75;;;17.90;99.90;;;;;;20709550;28;20049;-39
2022/05/19 01:26:09;;;;;;;3.92;1.73;;;17.90;99.90;;;;;;20706471;28;20041;-39
2022/05/19 01:36:10;;;;;;;3.40;1.92;;;17.90;99.90;;;;;;20709056;28;20441;-39
2022/05/19 01:46:28;;;;;;;4.32;2.50;;;17.90;99.90;;;;;;20720281;28;20038;-39
2022/05/19 01:56:35;;;;;;;4.77;3.13;;;17.90;99.90;;;;;;20726711;28;20052;-39
2022/05/19 02:06:41;;;;;;;7.30;3.10;;;18.00;99.90;;;;;;20706586;28;20453;-39
2022/05/19 02:16:43;;;;;;;4.93;2.38;;;18.00;99.90;;;;;;20703469;28;20167;-39
2022/05/19 02:26:44;;;;;;;4.85;1.85;;;18.00;99.90;;;;;;20703314;28;20044;-38
2022/05/19 02:36:47;;;;;;;5.07;2.63;;;18.10;99.90;;;;;;20707078;28;20037;-39
2022/05/19 02:46:48;;;;;;;7.05;2.97;;;18.10;99.90;;;;;;20700731;28;20050;-39
2022/05/19 02:56:49;;;;;;;6.78;4.22;;;18.20;99.90;;;;;;20712521;28;20042;-39
2022/05/19 03:06:50;;;;;;;15.60;4.60;;;18.60;99.90;;;;;;20720705;28;20041;-41
2022/05/19 03:16:51;;;;;;;7.03;2.78;;;17.90;99.90;;;;;;20709538;28;20496;-42
2022/05/19 03:26:52;;;;;;;0.77;0.30;;;17.30;99.90;;;;;;20708354;28;20052;-41
2022/05/19 03:36:53;;;;;;;1.08;0.60;;;16.80;99.90;;;;;;20715038;28;20545;-40
2022/05/19 03:46:54;;;;;;;0.70;0.30;;;16.60;99.90;;;;;;20703756;28;20057;-40
2022/05/19 03:56:55;;;;;;;0.68;0.50;;;16.50;99.90;;;;;;20712404;28;20060;-40
2022/05/19 04:06:56;;;;;;;1.92;0.55;;;16.50;99.90;;;;;;20713053;28;20322;-40
2022/05/19 04:16:57;;;;;;;0.80;0.40;;;16.60;99.90;;;;;;20704896;28;20061;-42
2022/05/19 04:26:58;;;;;;;0.57;0.30;;;16.60;99.90;;;;;;20698170;28;20425;-41
2022/05/19 04:36:59;;;;;;;2.72;0.85;;;16.60;99.90;;;;;;20703157;28;20048;-40
2022/05/19 04:47:02;;;;;;;2.35;1.02;;;16.60;99.90;;;;;;20709200;28;20041;-42
2022/05/19 04:57:04;;;;;;;1.45;0.60;;;16.70;99.90;;;;;;20714681;28;20030;-40
2022/05/19 05:07:06;;;;;;;1.58;1.13;;;16.80;99.90;;;;;;20721318;28;20066;-40
2022/05/19 05:17:08;;;;;;;4.95;1.05;;;16.80;99.90;;;;;;20696895;28;20052;-40
2022/05/19 05:27:09;;;;;;;1.20;0.57;;;16.80;99.90;;;;;;20697813;28;20446;-40
2022/05/19 05:37:10;;;;;;;1.50;0.68;;;16.80;99.90;;;;;;20690786;28;20046;-40
2022/05/19 05:47:11;;;;;;;2.13;0.98;;;16.80;99.90;;;;;;20697804;28;20041;-40
2022/05/19 05:57:14;;;;;;;2.80;1.20;;;17.00;99.90;;;;;;20691008;28;20033;-40
2022/05/19 06:07:15;;;;;;;2.65;1.20;;;17.00;99.90;;;;;;20690813;28;20604;-41
2022/05/19 06:17:16;;;;;;;2.75;1.67;;;17.10;99.90;;;;;;20696064;28;20046;-40
2022/05/19 06:27:17;;;;;;;1.33;0.85;;;17.20;99.90;;;;;;20682555;28;20045;-40
2022/05/19 06:37:18;;;;;;;1.85;0.75;;;17.30;99.90;;;;;;20701028;28;20042;-40
2022/05/19 06:47:20;;;;;;;1.52;0.75;;;17.30;99.90;;;;;;20682451;28;20193;-40
2022/05/19 06:57:23;;;;;;;2.03;0.85;;;17.40;99.90;;;;;;20692778;28;20041;-40
2022/05/19 07:07:25;;;;;;;2.80;0.90;;;17.60;99.90;;;;;;20689785;28;20071;-40
2022/05/19 07:17:26;;;;;;;1.42;0.80;;;17.80;99.90;;;;;;20688420;28;20061;-40
2022/05/19 07:27:27;;;;;;;2.80;1.50;;;17.90;99.90;;;;;;20681783;28;20045;-40
2022/05/19 07:37:28;;;;;;;1.15;0.60;;;18.20;99.90;;;;;;20679372;28;20579;-40
2022/05/19 07:47:30;;;;;;;1.20;0.90;;;18.30;99.90;;;;;;20678861;28;20042;-40
2022/05/19 07:57:31;;;;;;;2.08;0.98;;;18.50;99.90;;;;;;20685821;28;20038;-40
2022/05/19 08:07:32;;;;;;;7.07;1.55;;;18.70;99.90;;;;;;20690844;28;20298;-40
2022/05/19 08:17:33;;;;;;;4.22;1.08;;;18.80;99.90;;;;;;20700350;28;20045;-40
2022/05/19 08:27:34;;;;;;;1.55;0.77;;;19.00;99.90;;;;;;20686677;28;20073;-39
2022/05/19 08:37:35;;;;;;;2.13;0.88;;;19.20;99.90;;;;;;20720707;28;20038;-40
2022/05/19 08:47:37;;;;;;;2.00;0.90;;;19.40;99.90;;;;;;20702685;28;20044;-40
2022/05/19 08:57:47;;;;;;;1.40;0.57;;;19.50;99.90;;;;;;20669676;28;20802;-39
2022/05/19 09:08:07;;;;;;;1.65;0.90;;;19.40;99.90;;;;;;20700369;28;20420;-40
2022/05/19 09:18:10;;;;;;;1.77;0.60;;;19.30;99.90;;;;;;20699736;28;20572;-39
2022/05/19 09:28:13;;;;;;;1.85;0.80;;;19.50;99.90;;;;;;20707462;28;20041;-39
2022/05/19 09:38:47;;;;;;;1.60;1.35;;;20.30;99.90;;;;;;20720369;28;20048;-39
2022/05/19 09:48:57;;;;;;;3.30;1.40;;;21.00;99.90;;;;;;20712368;28;20041;-39
2022/05/19 09:59:14;;;;;;;1.77;0.93;;;21.50;99.90;;;;;;20722367;28;20046;-39
2022/05/19 10:09:19;;;;;;;1.60;0.60;;;21.60;99.90;;;;;;20710053;28;20049;-39
2022/05/19 10:19:29;;;;;;;1.45;0.70;;;22.20;99.90;;;;;;20714601;28;20050;-39
2022/05/19 10:40:50;;;;;;;3.28;1.35;;;22.90;99.90;;;;;;20717506;28;20057;-39
2022/05/19 10:50:55;;;;;;;4.70;1.45;;;23.20;99.90;;;;;;20753194;28;20038;-39
2022/05/19 11:01:16;;;;;;;2.72;1.55;;;22.70;99.90;;;;;;20731551;28;20515;-39
2022/05/19 11:11:39;;;;;;;2.97;1.58;;;22.20;99.90;;;;;;20736978;28;21353;-39
2022/05/19 11:21:50;;;;;;;2.50;1.33;;;22.00;99.90;;;;;;20717896;28;20069;-39
2022/05/19 11:32:15;;;;;;;4.13;1.95;;;21.70;99.90;;;;;;20707365;28;20768;-39
2022/05/19 11:42:35;;;;;;;4.55;2.78;;;21.50;99.90;;;;;;20688382;28;21300;-39
2022/05/19 12:03:34;;;;;;;3.10;2.03;;;19.10;99.90;;;;;;20710518;28;21510;-39
2022/05/19 12:13:36;;;;;;;5.05;3.10;;;18.70;99.90;;;;;;20704901;28;20038;-39
2022/05/19 12:23:42;;;;;;;6.15;3.40;;;18.50;99.90;;;;;;20712403;28;20042;-39
2022/05/19 12:34:01;;;;;;;6.25;4.65;;;18.40;99.90;;;;;;20707838;28;20041;-40
2022/05/19 12:44:24;;;;;;;7.72;3.97;;;18.30;99.90;;;;;;20707927;28;21328;-39
2022/05/19 12:54:32;;;;;;;7.55;3.58;;;18.20;99.90;;;;;;20704760;28;20052;-40
2022/05/19 13:04:41;;;;;;;4.90;3.05;;;18.20;99.90;;;;;;20704589;28;20034;-40
2022/05/19 13:14:50;;;;;;;5.43;3.35;;;18.30;99.90;;;;;;20714832;28;20045;-40
2022/05/19 13:24:52;;;;;;;3.90;2.78;;;18.20;99.90;;;;;;20712232;28;20042;-40
2022/05/19 13:34:54;;;;;;;4.50;2.88;;;18.50;99.90;;;;;;20709029;28;20489;-40
2022/05/19 13:44:55;;;;;;;7.57;2.75;;;18.70;99.90;;;;;;20713279;28;20041;-40
2022/05/19 13:54:57;;;;;;;3.45;1.83;;;19.10;99.90;;;;;;20702766;28;20033;-40
2022/05/19 14:04:58;;;;;;;3.00;2.25;;;19.20;99.90;;;;;;20698960;28;20092;-40
2022/05/19 14:15:16;;;;;;;2.00;1.13;;;19.70;99.90;;;;;;20702330;28;20572;-40
2022/05/19 14:25:21;;;;;;;1.30;1.00;;;19.70;99.90;;;;;;20704453;28;20045;-39
2022/05/19 14:35:35;;;;;;;1.95;0.95;;;20.30;99.90;;;;;;20709436;28;20998;-39
2022/05/19 14:45:41;;;;;;;2.20;1.70;;;20.60;99.90;;;;;;20704333;28;20049;-39
2022/05/19 14:55:45;;;;;;;3.57;2.20;;;20.40;99.90;;;;;;20708575;28;20048;-39
2022/05/19 15:05:46;;;;;;;2.97;1.80;;;20.00;99.90;;;;;;20715125;28;20037;-39
2022/05/19 15:15:47;;;;;;;3.05;1.30;;;19.90;99.90;;;;;;20707970;28;20056;-39
2022/05/19 15:25:48;;;;;;;3.72;2.33;;;19.80;99.90;;;;;;20716207;28;20059;-38
2022/05/19 15:35:50;;;;;;;4.93;2.80;;;19.60;99.90;;;;;;20737347;28;20040;-38
2022/05/19 15:45:51;;;;;;;4.97;2.97;;;19.70;99.90;;;;;;20672114;28;20137;-39
2022/05/19 15:55:52;;;;;;;4.88;2.60;;;19.60;99.90;;;;;;20710179;28;20030;-39
2022/05/19 16:05:54;;;;;;;5.95;2.40;;;19.60;99.90;;;;;;20657409;28;20377;-40
2022/05/19 16:15:56;;;;;;;4.28;2.45;;;19.50;99.90;;;;;;20729950;28;20315;-39
2022/05/19 16:25:58;;;;;;;5.70;2.80;;;19.30;99.90;;;;;;20737141;28;20053;-39
2022/05/19 16:35:59;;;;;;;9.48;3.25;;;19.00;99.90;;;;;;20730588;28;20065;-39
2022/05/19 16:46:01;;;;;;;4.18;1.90;;;18.60;99.90;;;;;;20665858;28;20426;-39
2022/05/19 17:06:22;;;;;;;4.10;2.33;;;18.00;99.90;;;;;;20712631;28;20463;-39
2022/05/19 17:16:26;;;;;;;10.27;3.38;;;18.00;99.90;;;;;;20718208;28;20160;-39
2022/05/19 17:26:27;;;;;;;7.18;3.40;;;17.80;99.90;;;;;;20726702;28;20041;-40
2022/05/19 17:36:29;;;;;;;6.82;4.05;;;17.60;99.90;;;;;;20729335;28;20045;-39
2022/05/19 17:46:32;;;;;;;12.23;3.78;;;17.40;99.90;;;;;;20722541;28;20839;-39
2022/05/19 17:56:36;;;;;;;12.45;5.13;;;17.40;99.90;;;;;;20725984;28;20041;-39
2022/05/19 18:06:41;;;;;;;6.70;3.95;;;17.20;99.90;;;;;;20722472;28;20378;-39
2022/05/19 18:27:02;;;;;;;8.82;4.40;;;17.00;99.90;;;;;;20715799;28;21411;-39
2022/05/19 18:37:03;;;;;;;6.28;3.33;;;16.90;99.90;;;;;;20683980;28;20504;-39
2022/05/19 18:47:05;;;;;;;4.85;2.55;;;16.80;99.90;;;;;;20741093;28;20149;-39
2022/05/19 18:57:06;;;;;;;4.35;2.30;;;16.60;99.90;;;;;;20755004;28;20152;-39
2022/05/19 19:07:11;;;;;;;5.85;2.55;;;16.40;99.90;;;;;;20749547;28;20041;-39
2022/05/19 19:17:12;;;;;;;3.85;2.03;;;16.20;99.90;;;;;;20753522;28;20060;-39
2022/05/19 19:27:15;;;;;;;11.65;2.55;;;16.00;99.90;;;;;;20745673;28;20053;-39
2022/05/19 19:37:16;;;;;;;3.67;1.40;;;15.90;99.90;;;;;;20744528;28;20037;-39
2022/05/19 19:47:18;;;;;;;3.05;1.50;;;15.70;99.90;;;;;;20756840;28;20061;-39
2022/05/19 19:57:19;;;;;;;6.57;1.55;;;15.60;99.90;;;;;;20737988;28;20099;-39
2022/05/19 20:07:20;;;;;;;2.92;1.15;;;15.30;99.90;;;;;;20745647;28;20046;-39
2022/05/19 20:17:22;;;;;;;2.08;0.95;;;15.20;99.90;;;;;;20751289;28;20443;-39
2022/05/19 20:27:24;;;;;;;2.67;1.33;;;15.10;99.90;;;;;;20759605;28;20107;-39
2022/05/19 20:37:25;;;;;;;2.40;1.02;;;14.90;99.90;;;;;;20770494;28;20049;-39
2022/05/19 20:47:26;;;;;;;2.17;1.40;;;14.70;99.90;;;;;;20756315;28;20049;-39
2022/05/19 20:57:29;;;;;;;1.88;1.13;;;14.60;99.90;;;;;;20751358;28;20347;-39
2022/05/19 21:07:31;;;;;;;3.15;1.05;;;14.50;99.90;;;;;;20748447;28;20273;-39
2022/05/19 21:17:33;;;;;;;2.90;1.23;;;14.50;99.90;;;;;;20747727;28;20060;-39
2022/05/19 21:27:35;;;;;;;2.65;1.45;;;14.40;99.90;;;;;;20761800;28;20045;-40
2022/05/19 21:37:37;;;;;;;2.78;1.40;;;14.30;99.90;;;;;;20773745;28;20034;-40
2022/05/19 21:47:38;;;;;;;4.85;1.63;;;14.10;99.90;;;;;;20748088;28;20034;-40
2022/05/19 21:57:51;;;;;;;3.42;2.00;;;14.10;99.90;;;;;;20738086;28;20353;-40
2022/05/19 22:07:52;;;;;;;4.32;1.50;;;14.00;99.90;;;;;;20743096;28;20041;-40
2022/05/19 22:17:54;;;;;;;2.67;1.27;;;13.90;99.90;;;;;;20744718;28;20081;-40
2022/05/19 22:27:55;;;;;;;3.83;2.08;;;13.90;99.90;;;;;;20719174;28;20149;-40
2022/05/19 22:37:57;;;;;;;6.63;2.35;;;13.70;99.90;;;;;;20714782;28;20038;-40
2022/05/19 22:47:59;;;;;;;3.20;1.70;;;13.60;99.90;;;;;;20714030;28;20041;-40
2022/05/19 22:58:00;;;;;;;4.43;2.20;;;13.40;99.90;;;;;;20720363;28;20042;-40
2022/05/19 23:08:02;;;;;;;3.30;1.88;;;13.40;99.90;;;;;;20727340;28;20485;-40
2022/05/19 23:18:03;;;;;;;4.95;2.85;;;13.50;99.90;;;;;;20721568;28;20073;-40
2022/05/19 23:28:08;;;;;;;2.58;1.35;;;13.50;99.90;;;;;;20724486;28;20045;-40
2022/05/19 23:38:09;;;;;;;3.40;1.70;;;13.40;99.90;;;;;;20724671;28;20349;-40
2022/05/19 23:48:18;;;;;;;2.80;1.50;;;13.10;99.90;;;;;;20741517;28;20057;-40
2022/05/19 23:58:19;;;;;;;2.88;1.38;;;13.10;99.90;;;;;;20744577;28;20469;-40
